Time;durP1;ratioP1;P1;durP2;ratioP2;P2;SDS_P1;SDS_P2;PMS_P1;PMS_P2;Temp;Humidity;BMP_temperature;BMP_pressure;BME280_temperature;BME280_humidity;BME280_pressure;Samples;Min_cycle;Max_cycle;Signal;HPM_P1;HPM_P2
2022/04/28 00:00:54;;;;;;;;;;;;;;;4.73;100.00;101168.28;5091100;28;20014;-77
2022/04/28 00:03:19;;;;;;;;;;;;;;;4.75;100.00;101150.09;5113802;28;19950;-76
2022/04/28 00:05:44;;;;;;;;;;;;;;;4.72;100.00;101142.09;5094723;28;20550;-76
2022/04/28 00:08:10;;;;;;;;;;;;;;;4.76;100.00;101136.25;5112997;28;19912;-75
2022/04/28 00:10:36;;;;;;;;;;;;;;;4.72;100.00;101126.44;5104059;27;19925;-75
2022/04/28 00:13:02;;;;;;;;;;;;;;;4.67;100.00;101124.41;5111153;27;19915;-76
2022/04/28 00:15:28;;;;;;;;;;;;;;;4.62;100.00;101112.78;5085604;28;19920;-76
2022/04/28 00:17:53;;;;;;;;;;;;;;;4.58;100.00;101099.47;5081373;28;19923;-75
2022/04/28 00:20:19;;;;;;;;;;;;;;;4.50;100.00;101096.34;5113282;28;19918;-74
2022/04/28 00:22:44;;;;;;;;;;;;;;;4.49;100.00;101085.03;5114497;27;20367;-74
2022/04/28 00:25:10;;;;;;;;;;;;;;;4.47;100.00;101075.28;5112677;28;20636;-75
2022/04/28 00:27:35;;;;;;;;;;;;;;;4.48;100.00;101064.97;5094481;27;19928;-76
2022/04/28 00:30:00;;;;;;;;;;;;;;;4.53;100.00;101039.19;5093729;28;20009;-77
2022/04/28 00:32:26;;;;;;;;;;;;;;;4.57;100.00;101024.63;5094678;28;19911;-73
2022/04/28 00:34:51;;;;;;;;;;;;;;;4.56;100.00;101009.78;5093762;28;19915;-77
2022/04/28 00:37:18;;;;;;;;;;;;;;;4.53;100.00;100997.44;5094703;28;19916;-76
2022/04/28 00:39:44;;;;;;;;;;;;;;;4.54;100.00;100983.63;5112175;27;19964;-77
2022/04/28 00:42:11;;;;;;;;;;;;;;;4.57;100.00;100968.16;5114357;27;20325;-77
2022/04/28 00:44:37;;;;;;;;;;;;;;;4.58;100.00;100967.34;5096524;28;19920;-77
2022/04/28 00:47:03;;;;;;;;;;;;;;;4.56;100.00;100965.47;5094046;28;19916;-77
2022/04/28 00:52:14;;;;;;;;;;;;;;;4.52;100.00;100947.81;5092966;28;20292;-77
2022/04/28 00:54:41;;;;;;;;;;;;;;;4.51;100.00;100948.63;5088259;28;20350;-77
2022/04/28 00:57:10;;;;;;;;;;;;;;;4.52;100.00;100937.38;5094576;28;19945;-76
2022/04/28 00:59:38;;;;;;;;;;;;;;;4.53;100.00;100934.84;5078738;28;19927;-76
2022/04/28 01:02:04;;;;;;;;;;;;;;;4.49;100.00;100936.38;5074809;28;20276;-76
2022/04/28 01:04:32;;;;;;;;;;;;;;;4.49;100.00;100922.47;5074432;28;19981;-77
2022/04/28 01:06:58;;;;;;;;;;;;;;;4.47;100.00;100929.25;5107374;28;19920;-77
2022/04/28 01:09:23;;;;;;;;;;;;;;;4.42;100.00;100923.75;5095065;28;20337;-77
2022/04/28 01:11:48;;;;;;;;;;;;;;;4.37;100.00;100922.59;5112214;28;19916;-77
2022/04/28 01:14:14;;;;;;;;;;;;;;;4.37;100.00;100917.38;5078155;28;19916;-77
2022/04/28 01:16:39;;;;;;;;;;;;;;;4.36;100.00;100917.28;5094049;28;19943;-77
2022/04/28 01:19:04;;;;;;;;;;;;;;;4.35;100.00;100915.47;5094545;28;20360;-77
2022/04/28 01:21:30;;;;;;;;;;;;;;;4.32;100.00;100911.88;5073213;28;20414;-77
2022/04/28 01:23:57;;;;;;;;;;;;;;;4.35;100.00;100908.56;5073770;28;20376;-77
2022/04/28 01:26:23;;;;;;;;;;;;;;;4.35;100.00;100912.84;5103216;28;19923;-77
2022/04/28 01:28:49;;;;;;;;;;;;;;;4.36;100.00;100909.47;5094569;28;20269;-78
2022/04/28 01:31:14;;;;;;;;;;;;;;;4.31;100.00;100910.06;5099718;28;19949;-78
2022/04/28 01:33:39;;;;;;;;;;;;;;;4.30;100.00;100905.69;5104038;28;19915;-77
2022/04/28 01:36:05;;;;;;;;;;;;;;;4.32;100.00;100897.94;5088563;28;19924;-78
2022/04/28 01:38:32;;;;;;;;;;;;;;;4.32;100.00;100904.06;5098871;28;19941;-77
2022/04/28 01:40:57;;;;;;;;;;;;;;;4.31;100.00;100904.84;5076519;28;20318;-78
2022/04/28 01:43:27;;;;;;;;;;;;;;;4.28;100.00;100907.25;5075873;28;19922;-78
2022/04/28 01:45:52;;;;;;;;;;;;;;;4.30;100.00;100905.69;5104603;28;19926;-77
2022/04/28 01:48:18;;;;;;;;;;;;;;;4.28;100.00;100901.16;5111103;28;19916;-78
2022/04/28 01:56:12;;;;;;;;;;;;;;;4.38;100.00;100887.91;5104039;28;20282;-77
2022/04/28 01:58:39;;;;;;;;;;;;;;;4.45;100.00;100883.94;5074972;28;19916;-77
2022/04/28 02:01:04;;;;;;;;;;;;;;;4.35;100.00;100890.31;5096304;28;19920;-76
2022/04/28 02:03:30;;;;;;;;;;;;;;;4.33;100.00;100897.13;5077711;28;19916;-76
2022/04/28 02:05:58;;;;;;;;;;;;;;;4.39;100.00;100907.03;5093549;28;20337;-78
2022/04/28 02:08:24;;;;;;;;;;;;;;;4.41;100.00;100895.91;5097613;28;19964;-76
2022/04/28 02:10:49;;;;;;;;;;;;;;;4.39;100.00;100899.22;5076793;28;19928;-76
2022/04/28 02:13:15;;;;;;;;;;;;;;;4.36;100.00;100904.25;5094328;28;20435;-77
2022/04/28 02:15:42;;;;;;;;;;;;;;;4.34;100.00;100903.25;5093239;28;19926;-77
2022/04/28 02:18:07;;;;;;;;;;;;;;;4.27;100.00;100908.09;5096779;28;19916;-77
2022/04/28 02:20:33;;;;;;;;;;;;;;;4.22;100.00;100914.69;5097326;28;20370;-75
2022/04/28 02:22:59;;;;;;;;;;;;;;;4.17;100.00;100921.34;5097099;28;19916;-75
2022/04/28 02:25:25;;;;;;;;;;;;;;;4.14;100.00;100923.75;5096566;28;19959;-74
2022/04/28 02:27:50;;;;;;;;;;;;;;;4.16;100.00;100922.13;5096767;28;20012;-75
2022/04/28 02:30:15;;;;;;;;;;;;;;;4.16;100.00;100922.13;5096164;28;19965;-75
2022/04/28 02:35:25;;;;;;;;;;;;;;;4.12;100.00;100921.06;5108297;27;20569;-74
2022/04/28 02:37:50;;;;;;;;;;;;;;;4.09;100.00;100925.19;5117579;27;19911;-74
2022/04/28 02:40:16;;;;;;;;;;;;;;;4.08;100.00;100925.97;5102955;28;19924;-75
2022/04/28 02:42:41;;;;;;;;;;;;;;;4.11;100.00;100918.34;5059986;28;20010;-75
2022/04/28 02:45:07;;;;;;;;;;;;;;;4.10;100.00;100922.69;5081541;28;19958;-74
2022/04/28 02:47:32;;;;;;;;;;;;;;;4.03;100.00;100925.69;5089761;28;19920;-75
2022/04/28 02:49:58;;;;;;;;;;;;;;;3.99;100.00;100926.28;5098199;28;19915;-76
2022/04/28 02:52:23;;;;;;;;;;;;;;;3.98;100.00;100927.09;5096535;28;19915;-74
2022/04/28 02:54:49;;;;;;;;;;;;;;;3.95;100.00;100934.72;5079684;27;20348;-74
2022/04/28 02:57:14;;;;;;;;;;;;;;;3.94;100.00;100930.31;5096918;28;19916;-76
2022/04/28 02:59:39;;;;;;;;;;;;;;;3.92;100.00;100931.94;5096182;28;19916;-76
2022/04/28 03:02:04;;;;;;;;;;;;;;;3.92;100.00;100938.03;5092026;28;19919;-75
2022/04/28 03:04:32;;;;;;;;;;;;;;;3.90;100.00;100931.81;5092090;28;20110;-75
2022/04/28 03:12:26;;;;;;;;;;;;;;;3.90;100.00;100923.09;5114559;28;20420;-75
2022/04/28 03:14:51;;;;;;;;;;;;;;;3.88;100.00;100925.59;5095095;28;19919;-75
2022/04/28 03:17:16;;;;;;;;;;;;;;;3.87;100.00;100923.81;5096412;28;20327;-75
2022/04/28 03:19:42;;;;;;;;;;;;;;;3.80;100.00;100926.81;5095348;28;19965;-74
2022/04/28 03:22:08;;;;;;;;;;;;;;;3.80;100.00;100933.75;5095562;28;19920;-75
2022/04/28 03:24:34;;;;;;;;;;;;;;;3.75;100.00;100933.44;5095429;28;19928;-76
2022/04/28 03:26:59;;;;;;;;;;;;;;;3.74;100.00;100931.63;5082825;28;19920;-75
2022/04/28 03:29:24;;;;;;;;;;;;;;;3.71;100.00;100932.34;5076732;28;19946;-76
2022/04/28 03:31:50;;;;;;;;;;;;;;;3.74;100.00;100929.94;5079021;28;19926;-75
2022/04/28 03:34:20;;;;;;;;;;;;;;;3.70;100.00;100929.66;5078873;28;20244;-76
2022/04/28 03:36:51;;;;;;;;;;;;;;;3.68;100.00;100923.41;5093084;28;19927;-74
2022/04/28 03:39:19;;;;;;;;;;;;;;;3.71;100.00;100910.59;5055228;28;20137;-77
2022/04/28 03:41:44;;;;;;;;;;;;;;;3.69;100.00;100912.22;5074691;28;19916;-76
2022/04/28 03:44:10;;;;;;;;;;;;;;;3.70;100.00;100908.81;5091524;28;19942;-75
2022/04/28 03:46:36;;;;;;;;;;;;;;;3.70;100.00;100914.03;5092281;28;19946;-75
2022/04/28 03:49:01;;;;;;;;;;;;;;;3.67;100.00;100904.31;5074928;28;19912;-76
2022/04/28 03:51:26;;;;;;;;;;;;;;;3.73;100.00;100903.81;5074255;28;19920;-76
2022/04/28 03:53:51;;;;;;;;;;;;;;;3.70;100.00;100908.81;5092190;28;19912;-75
2022/04/28 03:56:17;;;;;;;;;;;;;;;3.66;100.00;100918.13;5055782;28;19946;-73
2022/04/28 03:58:42;;;;;;;;;;;;;;;3.66;100.00;100922.44;5055104;28;20007;-78
2022/04/28 04:01:08;;;;;;;;;;;;;;;3.67;100.00;100919.03;5055107;28;19990;-76
2022/04/28 04:03:38;;;;;;;;;;;;;;;3.73;100.00;100906.41;5055346;28;19920;-75
2022/04/28 04:06:03;;;;;;;;;;;;;;;3.72;100.00;100915.00;5089320;28;19923;-75
2022/04/28 04:08:28;;;;;;;;;;;;;;;3.74;100.00;100916.00;5075412;28;19917;-78
2022/04/28 04:10:54;;;;;;;;;;;;;;;3.73;100.00;100915.13;5071072;28;20006;-75
2022/04/28 04:13:20;;;;;;;;;;;;;;;3.75;100.00;100916.09;5071512;28;19912;-75
2022/04/28 04:15:45;;;;;;;;;;;;;;;3.78;100.00;100913.69;5084457;28;19939;-75
2022/04/28 04:18:11;;;;;;;;;;;;;;;3.79;100.00;100909.38;5091148;28;19969;-75
2022/04/28 04:20:36;;;;;;;;;;;;;;;3.78;100.00;100920.63;5091960;28;19920;-75
2022/04/28 04:23:05;;;;;;;;;;;;;;;3.79;100.00;100927.63;5074520;28;19920;-75
2022/04/28 04:25:30;;;;;;;;;;;;;;;3.81;100.00;100927.72;5074324;28;19916;-76
2022/04/28 04:27:56;;;;;;;;;;;;;;;3.82;100.00;100935.63;5074737;28;20030;-76
2022/04/28 04:33:14;;;;;;;;;;;;;;;3.91;100.00;100938.81;5060487;28;20019;-76
2022/04/28 04:35:40;;;;;;;;;;;;;;;3.98;100.00;100950.56;5075273;28;19916;-76
2022/04/28 04:38:05;;;;;;;;;;;;;;;4.05;100.00;100955.34;5073764;28;19924;-76
2022/04/28 04:40:30;;;;;;;;;;;;;;;4.09;100.00;100964.28;5074482;28;19916;-76
2022/04/28 04:42:57;;;;;;;;;;;;;;;4.15;100.00;100977.69;5074507;28;20274;-75
2022/04/28 04:45:23;;;;;;;;;;;;;;;4.21;100.00;100979.78;5074055;28;20299;-75
2022/04/28 04:47:48;;;;;;;;;;;;;;;4.61;100.00;100974.44;5074010;28;19912;-77
2022/04/28 04:50:14;;;;;;;;;;;;;;;5.42;100.00;100939.25;5073739;28;19916;-75
2022/04/28 04:52:39;;;;;;;;;;;;;;;5.67;100.00;100952.06;5091410;28;19916;-76
2022/04/28 04:55:04;;;;;;;;;;;;;;;5.52;100.00;100988.63;5090641;28;19967;-75
2022/04/28 04:57:30;;;;;;;;;;;;;;;5.22;100.00;101033.00;5091701;28;20364;-77
2022/04/28 04:59:55;;;;;;;;;;;;;;;5.14;100.00;101067.28;5091387;28;19965;-77
2022/04/28 05:02:20;;;;;;;;;;;;;;;5.30;100.00;101063.88;5091076;28;19920;-76
2022/04/28 05:04:46;;;;;;;;;;;;;;;5.42;100.00;101080.28;5081533;28;19916;-75
2022/04/28 05:07:12;;;;;;;;;;;;;;;5.53;100.00;101088.78;5070182;28;19928;-76
2022/04/28 05:09:38;;;;;;;;;;;;;;;6.02;100.00;101096.94;5080774;28;20368;-76
2022/04/28 05:12:04;;;;;;;;;;;;;;;6.83;100.00;101105.88;5090704;28;19943;-77
2022/04/28 05:14:33;;;;;;;;;;;;;;;7.17;100.00;101208.97;5087013;28;19924;-75
2022/04/28 05:16:59;;;;;;;;;;;;;;;7.65;100.00;101266.59;5090562;28;19916;-76
2022/04/28 05:19:25;;;;;;;;;;;;;;;8.13;100.00;101355.72;5090624;28;19920;-75
2022/04/28 05:21:50;;;;;;;;;;;;;;;7.75;100.00;101486.47;5090403;28;19920;-75
2022/04/28 05:24:17;;;;;;;;;;;;;;;7.46;100.00;101573.91;5101648;28;19974;-75
2022/04/28 05:26:43;;;;;;;;;;;;;;;7.43;100.00;101606.06;5093864;28;19916;-76
2022/04/28 05:29:08;;;;;;;;;;;;;;;7.52;100.00;101624.09;5098409;28;19926;-76
2022/04/28 05:31:33;;;;;;;;;;;;;;;7.44;100.00;101636.72;5073833;28;19962;-75
2022/04/28 05:33:59;;;;;;;;;;;;;;;7.65;100.00;101671.19;5091314;28;19926;-74
2022/04/28 05:36:26;;;;;;;;;;;;;;;7.71;100.00;101717.84;5088904;28;19920;-76
2022/04/28 05:38:52;;;;;;;;;;;;;;;7.95;100.00;101760.38;5077418;28;20044;-75
2022/04/28 05:41:17;;;;;;;;;;;;;;;8.28;100.00;101823.56;5094151;28;19916;-75
2022/04/28 05:46:27;;;;;;;;;;;;;;;9.16;100.00;102015.38;5075771;28;19963;-75
2022/04/28 05:48:53;;;;;;;;;;;;;;;9.47;100.00;102107.50;5071022;28;20311;-75
2022/04/28 05:51:18;;;;;;;;;;;;;;;9.86;100.00;102176.47;5075225;28;20492;-76
2022/04/28 05:53:46;;;;;;;;;;;;;;;9.87;100.00;102245.78;5077020;28;19951;-75
2022/04/28 05:56:11;;;;;;;;;;;;;;;10.46;100.00;102305.53;5093257;28;19916;-74
2022/04/28 05:58:36;;;;;;;;;;;;;;;10.57;100.00;102370.28;5077131;28;19981;-75
2022/04/28 06:01:02;;;;;;;;;;;;;;;10.48;100.00;102390.81;5093159;28;20014;-75
2022/04/28 06:03:27;;;;;;;;;;;;;;;9.86;100.00;102422.88;5076191;28;19943;-76
2022/04/28 06:05:53;;;;;;;;;;;;;;;9.95;100.00;102394.53;5057203;28;19916;-76
2022/04/28 06:08:18;;;;;;;;;;;;;;;10.05;100.00;102424.94;5090779;28;19955;-76
2022/04/28 06:10:44;;;;;;;;;;;;;;;9.85;100.00;102442.09;5094033;28;19938;-75
2022/04/28 06:13:12;;;;;;;;;;;;;;;9.01;100.00;102424.31;5074346;28;19920;-75
2022/04/28 06:15:37;;;;;;;;;;;;;;;9.35;100.00;102395.94;5078412;28;19928;-75
2022/04/28 06:18:03;;;;;;;;;;;;;;;9.41;100.00;102395.44;5093019;28;19962;-75
2022/04/28 06:20:28;;;;;;;;;;;;;;;9.69;100.00;102408.63;5092819;28;19942;-76
2022/04/28 06:22:53;;;;;;;;;;;;;;;9.50;100.00;102432.84;5093239;28;19916;-76
2022/04/28 06:25:19;;;;;;;;;;;;;;;9.48;100.00;102442.38;5093840;28;19916;-76
2022/04/28 06:27:44;;;;;;;;;;;;;;;9.30;100.00;102452.56;5094472;28;19920;-77
2022/04/28 06:30:10;;;;;;;;;;;;;;;9.32;100.00;102454.50;5076236;28;19946;-77
2022/04/28 06:32:35;;;;;;;;;;;;;;;9.82;100.00;102469.16;5091658;28;19920;-75
2022/04/28 06:35:02;;;;;;;;;;;;;;;10.37;100.00;102489.31;5075317;28;19924;-75
2022/04/28 06:37:28;;;;;;;;;;;;;;;11.21;100.00;102543.66;5071456;28;20003;-75
2022/04/28 06:39:53;;;;;;;;;;;;;;;11.39;100.00;102595.69;5072195;28;20024;-76
2022/04/28 06:42:18;;;;;;;;;;;;;;;11.45;100.00;102625.06;5085964;28;20333;-75
2022/04/28 06:44:44;;;;;;;;;;;;;;;12.04;100.00;102640.03;5073467;28;19932;-76
2022/04/28 06:47:09;;;;;;;;;;;;;;;11.53;100.00;102691.50;5081840;28;19963;-75
2022/04/28 06:49:34;;;;;;;;;;;;;;;11.68;100.00;102697.72;5059410;28;19920;-76
2022/04/28 06:52:00;;;;;;;;;;;;;;;11.44;100.00;102732.31;5062191;28;19916;-75
2022/04/28 06:54:25;;;;;;;;;;;;;;;10.64;100.00;102752.66;5072658;28;19924;-75
2022/04/28 06:56:50;;;;;;;;;;;;;;;10.04;100.00;102739.00;5080835;28;19967;-75
2022/04/28 06:59:16;;;;;;;;;;;;;;;10.19;100.00;102728.56;5094362;28;19916;-75
2022/04/28 07:01:41;;;;;;;;;;;;;;;10.33;100.00;102719.00;5092394;28;20322;-76
2022/04/28 07:04:06;;;;;;;;;;;;;;;11.05;100.00;102739.53;5093840;28;19951;-76
2022/04/28 07:06:31;;;;;;;;;;;;;;;11.65;100.00;102780.25;5076632;28;19917;-76
2022/04/28 07:08:57;;;;;;;;;;;;;;;12.17;100.00;102814.25;5075442;28;19923;-76
2022/04/28 07:11:24;;;;;;;;;;;;;;;12.35;100.00;102813.53;5075425;28;19970;-77
2022/04/28 07:13:49;;;;;;;;;;;;;;;13.07;100.00;102832.75;5093393;28;19976;-76
2022/04/28 07:16:14;;;;;;;;;;;;;;;12.47;100.00;102859.19;5085384;28;19916;-78
2022/04/28 07:18:40;;;;;;;;;;;;;;;12.28;100.00;102851.00;5094607;28;19920;-75
2022/04/28 07:21:05;;;;;;;;;;;;;;;12.68;100.00;102871.91;5074177;28;20015;-76
2022/04/28 07:23:32;;;;;;;;;;;;;;;12.33;100.00;102890.06;5057603;28;20296;-75
2022/04/28 07:25:57;;;;;;;;;;;;;;;11.88;100.00;102886.34;5074402;28;19930;-75
2022/04/28 07:28:23;;;;;;;;;;;;;;;12.26;100.00;102897.50;5072361;28;20010;-75
2022/04/28 07:30:48;;;;;;;;;;;;;;;12.46;100.00;102915.53;5092665;28;20428;-74
2022/04/28 07:33:14;;;;;;;;;;;;;;;12.53;100.00;102935.31;5092723;28;19962;-75
2022/04/28 07:35:40;;;;;;;;;;;;;;;12.64;100.00;102928.03;5085299;28;19916;-78
2022/04/28 07:38:06;;;;;;;;;;;;;;;12.30;100.00;102947.97;5060420;28;19932;-75
2022/04/28 07:40:32;;;;;;;;;;;;;;;12.25;100.00;102956.47;5074332;28;19955;-77
2022/04/28 07:42:57;;;;;;;;;;;;;;;12.91;100.00;102979.00;5062577;28;19944;-77
2022/04/28 07:45:23;;;;;;;;;;;;;;;13.18;100.00;103000.00;5093483;28;19973;-75
2022/04/28 07:47:49;;;;;;;;;;;;;;;12.54;100.00;102997.91;5078747;28;20395;-74
2022/04/28 07:50:14;;;;;;;;;;;;;;;12.66;100.00;103013.59;5081546;28;19949;-78
2022/04/28 07:52:39;;;;;;;;;;;;;;;12.64;100.00;102995.00;5098123;28;20008;-76
2022/04/28 07:55:05;;;;;;;;;;;;;;;13.33;100.00;103002.63;5093375;28;19985;-77
2022/04/28 07:57:31;;;;;;;;;;;;;;;13.08;100.00;103027.63;5088671;28;20026;-77
2022/04/28 07:59:57;;;;;;;;;;;;;;;12.46;100.00;103013.28;5075441;28;20014;-77
2022/04/28 08:02:22;;;;;;;;;;;;;;;12.79;100.00;103010.00;5105360;28;19916;-77
2022/04/28 08:04:48;;;;;;;;;;;;;;;12.83;100.00;103031.41;5105398;28;19973;-77
2022/04/28 08:07:13;;;;;;;;;;;;;;;13.58;100.00;103034.13;5095832;28;19912;-77
2022/04/28 08:09:39;;;;;;;;;;;;;;;13.96;100.00;103070.78;5090672;28;19920;-74
2022/04/28 08:12:05;;;;;;;;;;;;;;;12.84;100.00;103069.34;5075909;28;20007;-78
2022/04/28 08:14:32;;;;;;;;;;;;;;;12.41;100.00;103061.38;5057723;28;19975;-77
2022/04/28 08:16:58;;;;;;;;;;;;;;;12.80;100.00;103057.66;5074106;28;19942;-77
2022/04/28 08:19:23;;;;;;;;;;;;;;;13.21;100.00;103059.28;5053816;28;19916;-77
2022/04/28 08:21:49;;;;;;;;;;;;;;;12.57;100.00;103065.09;5054120;28;20347;-77
2022/04/28 08:24:14;;;;;;;;;;;;;;;12.62;100.00;103065.38;5083594;28;19920;-79
2022/04/28 08:26:40;;;;;;;;;;;;;;;12.85;100.00;103065.88;5093001;28;19935;-77
2022/04/28 08:29:05;;;;;;;;;;;;;;;13.24;100.00;103064.78;5090632;28;19977;-77
2022/04/28 08:31:30;;;;;;;;;;;;;;;12.69;100.00;103053.44;5089764;28;19942;-77
2022/04/28 08:33:57;;;;;;;;;;;;;;;12.53;100.00;103056.88;5090026;28;19985;-77
2022/04/28 08:36:22;;;;;;;;;;;;;;;13.27;100.00;103069.34;5090622;28;19916;-76
2022/04/28 08:38:47;;;;;;;;;;;;;;;13.45;100.00;103074.84;5090291;28;19924;-77
2022/04/28 08:41:16;;;;;;;;;;;;;;;13.52;100.00;103073.50;5091797;28;20415;-77
2022/04/28 08:43:42;;;;;;;;;;;;;;;13.32;100.00;103085.50;5090144;28;19915;-75
2022/04/28 08:48:53;;;;;;;;;;;;;;;12.66;100.00;103061.19;5091777;28;19922;-77
2022/04/28 08:51:19;;;;;;;;;;;;;;;12.52;100.00;103069.19;5090272;28;20345;-76
2022/04/28 08:53:47;;;;;;;;;;;;;;;12.87;100.00;103062.53;5089133;28;20011;-76
2022/04/28 08:56:13;;;;;;;;;;;;;;;12.43;100.00;103054.44;5073861;28;19977;-77
2022/04/28 08:58:39;;;;;;;;;;;;;;;12.53;100.00;103060.41;5089563;28;19916;-76
2022/04/28 09:01:04;;;;;;;;;;;;;;;12.68;100.00;103056.94;5089190;28;19916;-76
2022/04/28 09:03:30;;;;;;;;;;;;;;;12.27;100.00;103049.91;5089933;28;20364;-74
2022/04/28 09:05:55;;;;;;;;;;;;;;;12.46;100.00;103045.00;5090784;28;19959;-76
2022/04/28 09:08:20;;;;;;;;;;;;;;;12.78;100.00;103043.44;5088181;28;20433;-76
2022/04/28 09:10:46;;;;;;;;;;;;;;;12.69;100.00;103046.44;5089665;28;20025;-76
2022/04/28 09:15:56;;;;;;;;;;;;;;;13.08;100.00;103059.34;5090336;28;20025;-76
2022/04/28 09:18:22;;;;;;;;;;;;;;;13.31;100.00;103065.16;5066208;28;20416;-75
2022/04/28 09:20:48;;;;;;;;;;;;;;;12.68;100.00;103062.22;5075514;28;19924;-77
2022/04/28 09:23:14;;;;;;;;;;;;;;;13.09;100.00;103045.31;5075377;28;19982;-77
2022/04/28 09:25:40;;;;;;;;;;;;;;;13.40;100.00;103045.47;5071606;28;20369;-74
2022/04/28 09:28:06;;;;;;;;;;;;;;;12.82;100.00;103052.47;5080391;28;19928;-74
2022/04/28 09:30:52;;;;;;;;;;;;;;;12.60;100.00;103034.38;5071949;28;19951;-76
2022/04/28 09:33:18;;;;;;;;;;;;;;;12.71;100.00;103030.69;5087260;28;19952;-74
2022/04/28 09:35:45;;;;;;;;;;;;;;;11.52;100.00;103020.38;5073501;28;20569;-75
2022/04/28 09:38:11;;;;;;;;;;;;;;;11.67;100.00;102999.41;5090804;28;19920;-77
2022/04/28 09:43:20;;;;;;;;;;;;;;;12.02;100.00;102993.81;5090858;28;20334;-75
2022/04/28 09:45:48;;;;;;;;;;;;;;;11.90;100.00;103002.59;5058097;28;19920;-74
2022/04/28 09:48:13;;;;;;;;;;;;;;;11.91;100.00;102999.16;5076549;28;19955;-75
2022/04/28 09:50:40;;;;;;;;;;;;;;;11.77;100.00;102999.16;5090387;28;20456;-76
2022/04/28 09:53:08;;;;;;;;;;;;;;;11.52;100.00;103006.28;5072616;28;19924;-76
2022/04/28 09:55:34;;;;;;;;;;;;;;;11.61;100.00;103009.53;5073906;28;20026;-77
2022/04/28 09:58:01;;;;;;;;;;;;;;;11.88;100.00;103020.09;5091601;28;19942;-77
2022/04/28 10:00:26;;;;;;;;;;;;;;;11.55;100.00;103017.06;5057891;28;19920;-76
2022/04/28 10:02:54;;;;;;;;;;;;;;;11.63;100.00;103010.56;5072959;28;19973;-77
2022/04/28 10:05:21;;;;;;;;;;;;;;;11.52;100.00;103011.56;5072189;28;19942;-78
2022/04/28 10:07:47;;;;;;;;;;;;;;;11.50;100.00;103007.09;5045825;28;19928;-77
2022/04/28 10:10:13;;;;;;;;;;;;;;;11.52;100.00;102999.28;5071962;28;19920;-77
2022/04/28 10:12:39;;;;;;;;;;;;;;;11.59;100.00;103000.59;5079026;28;19921;-76
2022/04/28 10:15:06;;;;;;;;;;;;;;;11.58;100.00;103004.06;5070668;28;20432;-78
2022/04/28 10:17:41;;;;;;;;;;;;;;;11.29;100.00;103005.66;5071148;28;20630;-77
2022/04/28 10:20:28;;;;;;;;;;;;;;;11.24;100.00;103004.44;5086760;28;19932;-77
2022/04/28 10:23:15;;;;;;;;;;;;;;;11.32;100.00;103004.13;5061747;28;20373;-75
2022/04/28 10:34:19;;;;;;;;;;;;;;;12.11;100.00;103005.78;5094081;28;19927;-76
2022/04/28 10:36:51;;;;;;;;;;;;;;;11.53;100.00;103016.00;5068904;28;19982;-78
2022/04/28 10:39:31;;;;;;;;;;;;;;;11.77;100.00;103016.75;5056917;28;20280;-77
2022/04/28 10:41:56;;;;;;;;;;;;;;;11.59;100.00;103013.78;5057246;28;20384;-77
2022/04/28 10:44:28;;;;;;;;;;;;;;;11.91;100.00;103020.28;5057154;28;19943;-77
2022/04/28 10:47:01;;;;;;;;;;;;;;;11.88;100.00;103028.00;5083789;28;19912;-77
2022/04/28 10:49:35;;;;;;;;;;;;;;;11.58;100.00;103022.53;5092038;28;19920;-78
2022/04/28 10:52:01;;;;;;;;;;;;;;;11.92;100.00;103019.47;5085380;28;20670;-78
2022/04/28 10:54:41;;;;;;;;;;;;;;;11.82;100.00;103013.59;5074685;28;19916;-76
2022/04/28 10:57:06;;;;;;;;;;;;;;;12.03;100.00;103019.38;5074991;28;19917;-78
2022/04/28 10:59:40;;;;;;;;;;;;;;;12.07;100.00;103023.13;5057069;28;20304;-79
2022/04/28 11:02:09;;;;;;;;;;;;;;;11.71;100.00;103030.44;5073582;28;19920;-77
2022/04/28 11:04:36;;;;;;;;;;;;;;;12.07;100.00;103009.91;5073440;28;20034;-77
2022/04/28 11:07:05;;;;;;;;;;;;;;;12.12;100.00;103019.06;5073319;28;19912;-77
2022/04/28 11:09:31;;;;;;;;;;;;;;;11.98;100.00;103028.75;5073182;28;20053;-77
2022/04/28 11:12:06;;;;;;;;;;;;;;;12.19;100.00;103010.69;5073245;28;19917;-77
2022/04/28 11:14:43;;;;;;;;;;;;;;;12.25;100.00;103018.13;5072067;28;20384;-75
2022/04/28 11:17:09;;;;;;;;;;;;;;;12.01;100.00;103020.13;5073456;28;19916;-75
2022/04/28 11:19:36;;;;;;;;;;;;;;;12.09;100.00;103010.94;5072343;28;20319;-77
2022/04/28 11:22:01;;;;;;;;;;;;;;;12.17;100.00;103001.78;5071031;28;19916;-76
2022/04/28 11:24:28;;;;;;;;;;;;;;;12.24;100.00;103003.06;5055431;28;19973;-75
2022/04/28 11:26:55;;;;;;;;;;;;;;;12.23;100.00;103010.91;5071190;28;19922;-73
2022/04/28 11:29:22;;;;;;;;;;;;;;;12.26;100.00;103014.69;5072406;28;19924;-76
2022/04/28 11:31:49;;;;;;;;;;;;;;;12.38;100.00;103017.16;5071148;28;19963;-75
2022/04/28 11:34:17;;;;;;;;;;;;;;;12.50;100.00;103010.00;5071889;28;20635;-75
2022/04/28 11:36:43;;;;;;;;;;;;;;;12.31;100.00;103014.97;5055132;28;19948;-76
2022/04/28 11:39:08;;;;;;;;;;;;;;;12.35;100.00;103017.91;5071884;28;19967;-78
2022/04/28 11:41:35;;;;;;;;;;;;;;;12.27;100.00;103005.00;5071219;28;19970;-74
2022/04/28 11:44:09;;;;;;;;;;;;;;;12.02;100.00;102993.81;5072364;28;20015;-75
2022/04/28 11:46:36;;;;;;;;;;;;;;;12.54;100.00;102993.53;5069745;28;19951;-77
2022/04/28 11:49:01;;;;;;;;;;;;;;;12.77;100.00;103001.03;5071956;28;20361;-78
2022/04/28 11:51:26;;;;;;;;;;;;;;;12.46;100.00;102999.16;5071969;28;20031;-77
2022/04/28 11:53:53;;;;;;;;;;;;;;;12.71;100.00;102997.22;5072091;28;19913;-78
2022/04/28 11:56:19;;;;;;;;;;;;;;;12.50;100.00;102999.44;5077937;28;19973;-76
2022/04/28 11:58:51;;;;;;;;;;;;;;;12.52;100.00;103005.75;5074730;28;20353;-77
2022/04/28 12:01:19;;;;;;;;;;;;;;;12.31;100.00;103002.66;5093430;28;19916;-78
2022/04/28 12:03:53;;;;;;;;;;;;;;;12.94;100.00;103021.50;5085356;28;20253;-76
2022/04/28 12:06:19;;;;;;;;;;;;;;;12.48;100.00;103006.38;5073412;28;19916;-78
2022/04/28 12:08:48;;;;;;;;;;;;;;;12.86;100.00;103017.47;5075782;28;20383;-75
2022/04/28 12:14:22;;;;;;;;;;;;;;;12.83;100.00;103012.91;5093295;28;19962;-78
2022/04/28 12:19:29;;;;;;;;;;;;;;;13.11;100.00;103027.81;5083220;28;19974;-77
2022/04/28 12:22:01;;;;;;;;;;;;;;;13.03;100.00;103035.28;5088217;28;20319;-74
2022/04/28 12:24:35;;;;;;;;;;;;;;;13.09;100.00;103014.50;5076024;28;19927;-75
2022/04/28 12:27:07;;;;;;;;;;;;;;;13.03;100.00;103021.16;5071634;28;19920;-74
2022/04/28 12:29:46;;;;;;;;;;;;;;;12.81;100.00;103019.84;5082564;28;20021;-75
2022/04/28 12:32:13;;;;;;;;;;;;;;;13.10;100.00;103015.44;5090818;28;20276;-75
2022/04/28 12:34:38;;;;;;;;;;;;;;;13.16;100.00;103017.50;5085268;28;19924;-76
2022/04/28 12:37:03;;;;;;;;;;;;;;;13.50;100.00;103012.53;5071886;28;19917;-76
2022/04/28 12:39:29;;;;;;;;;;;;;;;13.55;100.00;103002.19;5054624;28;19916;-76
2022/04/28 12:41:54;;;;;;;;;;;;;;;13.78;100.00;103022.03;5054952;28;19916;-76
2022/04/28 12:44:22;;;;;;;;;;;;;;;13.61;100.00;103013.13;5054114;28;20380;-76
2022/04/28 12:46:49;;;;;;;;;;;;;;;13.74;100.00;103002.44;5056146;28;19912;-75
2022/04/28 12:49:19;;;;;;;;;;;;;;;13.61;100.00;103003.47;5092832;28;19924;-76
2022/04/28 12:51:45;;;;;;;;;;;;;;;13.37;100.00;102996.75;5085348;28;19916;-76
2022/04/28 12:54:13;;;;;;;;;;;;;;;13.77;100.00;102986.72;5071377;28;19916;-76
2022/04/28 12:56:40;;;;;;;;;;;;;;;13.74;100.00;102990.94;5072938;28;19923;-78
2022/04/28 12:59:07;;;;;;;;;;;;;;;13.57;100.00;102997.91;5070226;28;19913;-78
2022/04/28 13:01:33;;;;;;;;;;;;;;;13.37;100.00;103002.94;5090195;28;20002;-76
2022/04/28 13:04:06;;;;;;;;;;;;;;;13.93;100.00;102983.19;5090944;28;20327;-77
2022/04/28 13:06:37;;;;;;;;;;;;;;;14.25;100.00;102991.13;5090259;28;20018;-75
2022/04/28 13:09:03;;;;;;;;;;;;;;;14.09;100.00;103005.25;5081662;28;19924;-76
2022/04/28 13:11:30;;;;;;;;;;;;;;;13.80;100.00;103015.13;5070734;28;19924;-77